Time;durP1;ratioP1;P1;durP2;ratioP2;P2;SDS_P1;SDS_P2;PMS_P1;PMS_P2;Temp;Humidity;BMP_temperature;BMP_pressure;BME280_temperature;BME280_humidity;BME280_pressure;Samples;Min_cycle;Max_cycle;Signal;HPM_P1;HPM_P2
2022/05/20 00:00:54;;;;;;;8.50;4.78;;;;;;;;;;4957450;29;20027;-86
2022/05/20 00:03:20;;;;;;;6.47;4.25;;;;;;;;;;4957606;28;20085;-86
2022/05/20 00:05:48;;;;;;;6.65;4.70;;;;;;;;;;4957149;29;20042;-86
2022/05/20 00:08:13;;;;;;;6.70;4.45;;;;;;;;;;4956930;28;20027;-86
2022/05/20 00:10:39;;;;;;;5.32;4.25;;;;;;;;;;4957300;29;20154;-86
2022/05/20 00:13:05;;;;;;;4.82;4.30;;;;;;;;;;4939920;29;20040;-86
2022/05/20 00:15:31;;;;;;;5.68;4.60;;;;;;;;;;4956672;28;20023;-86
2022/05/20 00:17:57;;;;;;;5.05;4.60;;;;;;;;;;4956153;28;20041;-85
2022/05/20 00:20:24;;;;;;;5.10;4.45;;;;;;;;;;4939703;29;20096;-86
2022/05/20 00:22:50;;;;;;;5.30;4.38;;;;;;;;;;4957085;29;20027;-86
2022/05/20 00:28:24;;;;;;;5.28;4.43;;;;;;;;;;4944166;28;20504;-86
2022/05/20 00:30:54;;;;;;;5.45;4.32;;;;;;;;;;4963175;28;20059;-85
2022/05/20 00:33:20;;;;;;;6.05;4.47;;;;;;;;;;4967084;28;20507;-86
2022/05/20 00:35:45;;;;;;;5.07;4.55;;;;;;;;;;4963181;28;20031;-85
2022/05/20 00:38:12;;;;;;;6.90;5.55;;;;;;;;;;4956644;28;20030;-86
2022/05/20 00:40:38;;;;;;;6.03;4.90;;;;;;;;;;4956599;29;21075;-86
2022/05/20 00:43:08;;;;;;;5.63;4.65;;;;;;;;;;4960240;28;20024;-85
2022/05/20 00:45:34;;;;;;;6.22;4.53;;;;;;;;;;4962152;28;20541;-86
2022/05/20 00:47:59;;;;;;;5.82;4.72;;;;;;;;;;4969578;28;20111;-86
2022/05/20 00:50:25;;;;;;;6.03;4.65;;;;;;;;;;4965518;28;20034;-87
2022/05/20 00:52:51;;;;;;;6.05;4.95;;;;;;;;;;4974374;28;20398;-86
2022/05/20 00:55:19;;;;;;;6.20;4.85;;;;;;;;;;4975602;28;20109;-86
2022/05/20 00:57:53;;;;;;;6.72;5.47;;;;;;;;;;4975471;28;20085;-86
2022/05/20 01:00:24;;;;;;;5.88;4.68;;;;;;;;;;4970054;28;20105;-85
2022/05/20 01:02:53;;;;;;;5.53;4.72;;;;;;;;;;4960916;28;20528;-86
2022/05/20 01:05:21;;;;;;;;;;;;;;;;;;4956569;29;20035;-86
2022/05/20 01:07:48;;;;;;;5.40;4.53;;;;;;;;;;4956647;28;19914;-86
2022/05/20 01:10:13;;;;;;;6.10;4.50;;;;;;;;;;4956034;28;20031;-87
2022/05/20 01:12:39;;;;;;;10.63;5.10;;;;;;;;;;4955927;29;20110;-86
2022/05/20 01:15:07;;;;;;;5.38;4.85;;;;;;;;;;4938932;29;20102;-86
2022/05/20 01:17:32;;;;;;;5.15;4.65;;;;;;;;;;4955711;29;20553;-86
2022/05/20 01:19:58;;;;;;;6.80;5.10;;;;;;;;;;4955758;29;20027;-86
2022/05/20 01:22:53;;;;;;;7.63;5.35;;;;;;;;;;4956085;28;20023;-86
2022/05/20 01:25:18;;;;;;;6.13;4.88;;;;;;;;;;4929792;28;20035;-85
2022/05/20 01:27:43;;;;;;;5.80;5.28;;;;;;;;;;4955666;28;20360;-85
2022/05/20 01:30:12;;;;;;;5.47;5.00;;;;;;;;;;4955717;29;20031;-85
2022/05/20 01:32:37;;;;;;;7.13;5.10;;;;;;;;;;4955725;28;20082;-85
2022/05/20 01:35:05;;;;;;;5.78;5.07;;;;;;;;;;4956077;29;20419;-85
2022/05/20 01:37:31;;;;;;;6.57;4.85;;;;;;;;;;4955629;28;20020;-85
2022/05/20 01:39:58;;;;;;;6.30;4.90;;;;;;;;;;4955923;28;20034;-85
2022/05/20 01:42:30;;;;;;;6.30;5.70;;;;;;;;;;4955563;29;20027;-85
2022/05/20 01:45:01;;;;;;;7.00;5.60;;;;;;;;;;4956014;29;20024;-86
2022/05/20 01:47:39;;;;;;;5.55;5.05;;;;;;;;;;4955891;29;20479;-85
2022/05/20 01:50:18;;;;;;;6.43;4.70;;;;;;;;;;4955544;29;20055;-86
2022/05/20 01:52:56;;;;;;;6.68;5.20;;;;;;;;;;4955599;29;20031;-85
2022/05/20 01:55:25;;;;;;;6.82;5.57;;;;;;;;;;4955882;28;20031;-86
2022/05/20 01:58:07;;;;;;;5.53;5.03;;;;;;;;;;4955681;29;20019;-86
2022/05/20 02:00:34;;;;;;;5.93;5.32;;;;;;;;;;4955473;29;20538;-85
2022/05/20 02:03:14;;;;;;;7.30;5.25;;;;;;;;;;4955475;29;20035;-85
2022/05/20 02:05:45;;;;;;;7.88;5.10;;;;;;;;;;4955193;29;20032;-85
2022/05/20 02:08:20;;;;;;;8.13;5.57;;;;;;;;;;4955650;28;20027;-85
2022/05/20 02:10:53;;;;;;;7.38;5.38;;;;;;;;;;4955363;29;20024;-85
2022/05/20 02:13:19;;;;;;;6.13;5.40;;;;;;;;;;4955338;28;20028;-85
2022/05/20 02:15:56;;;;;;;7.15;5.68;;;;;;;;;;4955152;29;20150;-85
2022/05/20 02:18:30;;;;;;;7.32;5.18;;;;;;;;;;4955180;28;20070;-85
2022/05/20 02:21:02;;;;;;;6.85;4.95;;;;;;;;;;4955501;29;20098;-85
2022/05/20 02:23:35;;;;;;;6.30;5.25;;;;;;;;;;4955278;29;20034;-85
2022/05/20 02:26:08;;;;;;;6.35;5.72;;;;;;;;;;4955407;29;20494;-85
2022/05/20 02:28:40;;;;;;;6.25;5.28;;;;;;;;;;4955160;29;20129;-85
2022/05/20 02:31:11;;;;;;;6.35;5.32;;;;;;;;;;4955194;28;20158;-85
2022/05/20 02:33:37;;;;;;;5.85;5.28;;;;;;;;;;4937847;29;20027;-85
2022/05/20 02:36:08;;;;;;;6.28;5.15;;;;;;;;;;4955426;29;20027;-86
2022/05/20 02:38:34;;;;;;;5.55;5.05;;;;;;;;;;4937947;28;20374;-86
2022/05/20 02:40:59;;;;;;;7.57;5.63;;;;;;;;;;4957914;29;20033;-85
2022/05/20 02:43:25;;;;;;;7.85;5.55;;;;;;;;;;4958869;28;20118;-85
2022/05/20 02:45:52;;;;;;;8.75;5.57;;;;;;;;;;4959044;29;20111;-86
2022/05/20 02:48:19;;;;;;;6.53;5.13;;;;;;;;;;4958977;29;20386;-86
2022/05/20 02:50:45;;;;;;;5.45;4.78;;;;;;;;;;4947062;29;20082;-86
2022/05/20 02:53:11;;;;;;;6.03;5.22;;;;;;;;;;4941382;29;20075;-85
2022/05/20 02:55:37;;;;;;;6.07;5.45;;;;;;;;;;4941716;29;20027;-85
2022/05/20 02:58:04;;;;;;;7.43;5.28;;;;;;;;;;4958669;29;20023;-85
2022/05/20 03:05:57;;;;;;;6.25;5.25;;;;;;;;;;4958364;28;20030;-85
2022/05/20 03:08:23;;;;;;;6.53;5.55;;;;;;;;;;4958318;29;20113;-85
2022/05/20 03:10:49;;;;;;;6.00;5.40;;;;;;;;;;4941239;28;20035;-85
2022/05/20 03:13:15;;;;;;;6.22;5.63;;;;;;;;;;4958514;28;20458;-85
2022/05/20 03:15:41;;;;;;;6.97;5.68;;;;;;;;;;4958097;28;20470;-85
2022/05/20 03:18:08;;;;;;;7.28;5.70;;;;;;;;;;4958114;29;20123;-86
2022/05/20 03:20:34;;;;;;;8.15;5.50;;;;;;;;;;4958282;29;20027;-85
2022/05/20 03:23:00;;;;;;;5.82;5.22;;;;;;;;;;4958220;28;20028;-85
2022/05/20 03:25:25;;;;;;;7.28;5.68;;;;;;;;;;4958004;28;20031;-85
2022/05/20 03:27:51;;;;;;;6.88;6.00;;;;;;;;;;4957936;29;20059;-85
2022/05/20 03:30:18;;;;;;;8.43;5.70;;;;;;;;;;4958120;28;20466;-85
2022/05/20 03:32:44;;;;;;;6.35;5.75;;;;;;;;;;4958203;28;20035;-85
2022/05/20 03:35:11;;;;;;;7.95;5.45;;;;;;;;;;4957870;29;20035;-85
2022/05/20 03:37:36;;;;;;;6.10;5.32;;;;;;;;;;4958010;29;20031;-85
2022/05/20 03:40:03;;;;;;;8.02;5.53;;;;;;;;;;4957810;28;20027;-85
2022/05/20 03:42:29;;;;;;;8.77;6.00;;;;;;;;;;4957666;29;20027;-85
2022/05/20 03:44:54;;;;;;;7.25;6.00;;;;;;;;;;4957641;28;20086;-85
2022/05/20 03:47:20;;;;;;;7.60;5.90;;;;;;;;;;4957625;28;20028;-85
2022/05/20 03:49:46;;;;;;;7.28;6.07;;;;;;;;;;4940120;29;20061;-85
2022/05/20 03:52:13;;;;;;;7.47;5.80;;;;;;;;;;4957734;28;20030;-85
2022/05/20 03:54:38;;;;;;;6.32;5.72;;;;;;;;;;4957296;28;20157;-85
2022/05/20 03:57:05;;;;;;;7.97;5.93;;;;;;;;;;4957614;29;20506;-85
2022/05/20 03:59:35;;;;;;;6.50;5.72;;;;;;;;;;4957421;29;20474;-85
2022/05/20 04:02:01;;;;;;;8.10;5.82;;;;;;;;;;4957431;29;20031;-85
2022/05/20 04:04:26;;;;;;;6.82;6.03;;;;;;;;;;4957298;28;20057;-85
2022/05/20 04:06:51;;;;;;;7.50;6.38;;;;;;;;;;4939953;29;20039;-85
2022/05/20 04:09:17;;;;;;;7.30;6.30;;;;;;;;;;4957266;29;20078;-85
2022/05/20 04:11:43;;;;;;;6.10;5.60;;;;;;;;;;4957259;28;20027;-85
2022/05/20 04:14:09;;;;;;;6.30;5.15;;;;;;;;;;4957358;28;20098;-85
2022/05/20 04:16:35;;;;;;;7.05;5.95;;;;;;;;;;4957186;29;20053;-85
2022/05/20 04:19:00;;;;;;;7.97;6.35;;;;;;;;;;4957103;28;20506;-85
2022/05/20 04:21:26;;;;;;;7.10;6.40;;;;;;;;;;4956962;29;20090;-85
2022/05/20 04:23:51;;;;;;;8.98;6.00;;;;;;;;;;4957145;29;20089;-85
2022/05/20 04:26:17;;;;;;;9.45;5.90;;;;;;;;;;4957286;29;20031;-85
2022/05/20 04:28:43;;;;;;;6.78;6.03;;;;;;;;;;4957012;29;20035;-85
2022/05/20 04:31:11;;;;;;;6.60;6.00;;;;;;;;;;4956705;28;20476;-85
2022/05/20 04:33:38;;;;;;;7.85;6.13;;;;;;;;;;4939749;29;20031;-85
2022/05/20 04:36:04;;;;;;;7.18;6.38;;;;;;;;;;4956669;29;20049;-86
2022/05/20 04:38:30;;;;;;;8.95;6.38;;;;;;;;;;4956579;28;20031;-85
2022/05/20 04:49:18;;;;;;;8.25;6.55;;;;;;;;;;4956379;28;20063;-87
2022/05/20 04:51:43;;;;;;;9.00;6.75;;;;;;;;;;4961675;28;20035;-86
2022/05/20 04:56:53;;;;;;;8.90;7.00;;;;;;;;;;4976811;28;20491;-91
2022/05/20 04:59:20;;;;;;;7.93;6.72;;;;;;;;;;4975768;28;20023;-84
2022/05/20 05:01:46;;;;;;;7.65;6.57;;;;;;;;;;4975801;28;20037;-84
2022/05/20 05:04:12;;;;;;;9.18;6.40;;;;;;;;;;4975405;28;20062;-84
2022/05/20 05:06:37;;;;;;;7.93;6.78;;;;;;;;;;4975609;28;20136;-84
2022/05/20 05:09:03;;;;;;;8.30;5.97;;;;;;;;;;4975510;28;20034;-85
2022/05/20 05:11:29;;;;;;;6.22;5.50;;;;;;;;;;4975906;28;20023;-88
2022/05/20 05:13:54;;;;;;;9.25;6.70;;;;;;;;;;4975825;28;20106;-94
2022/05/20 05:16:20;;;;;;;7.50;6.35;;;;;;;;;;4957897;28;20030;-87
2022/05/20 05:18:45;;;;;;;7.72;6.32;;;;;;;;;;4975487;28;20054;-87
2022/05/20 05:21:15;;;;;;;7.18;5.88;;;;;;;;;;4975399;28;20529;-83
2022/05/20 05:23:40;;;;;;;7.10;6.28;;;;;;;;;;4975095;28;20049;-90
2022/05/20 05:26:06;;;;;;;8.80;6.68;;;;;;;;;;4975432;28;20158;-89
2022/05/20 05:28:32;;;;;;;7.35;6.03;;;;;;;;;;4975429;28;20018;-90
2022/05/20 05:30:58;;;;;;;6.20;5.70;;;;;;;;;;4975592;28;20027;-87
2022/05/20 05:33:24;;;;;;;8.95;6.47;;;;;;;;;;4983246;28;20035;-88
2022/05/20 05:35:50;;;;;;;7.15;6.50;;;;;;;;;;4957880;28;20077;-87
2022/05/20 05:38:15;;;;;;;7.53;6.60;;;;;;;;;;4957618;28;20466;-88
2022/05/20 05:40:41;;;;;;;21.65;9.90;;;;;;;;;;4957914;28;20058;-89
2022/05/20 05:43:06;;;;;;;39.92;15.88;;;;;;;;;;4974980;28;20129;-91
2022/05/20 05:45:34;;;;;;;9.95;7.25;;;;;;;;;;4967528;28;20481;-92
2022/05/20 05:48:02;;;;;;;10.32;7.53;;;;;;;;;;4957424;28;20038;-88
2022/05/20 05:50:30;;;;;;;10.75;7.07;;;;;;;;;;4957318;28;20058;-86
2022/05/20 05:52:56;;;;;;;9.63;7.20;;;;;;;;;;4957401;28;20023;-86
2022/05/20 05:55:22;;;;;;;8.63;6.57;;;;;;;;;;4974679;28;20018;-81
2022/05/20 05:57:47;;;;;;;6.65;6.05;;;;;;;;;;4974581;28;20045;-83
2022/05/20 06:00:13;;;;;;;8.07;6.97;;;;;;;;;;4974790;28;20029;-82
2022/05/20 06:02:38;;;;;;;8.30;6.30;;;;;;;;;;4974823;28;20027;-83
2022/05/20 06:05:04;;;;;;;7.85;5.90;;;;;;;;;;4975194;28;20118;-82
2022/05/20 06:07:30;;;;;;;8.23;6.82;;;;;;;;;;4974734;28;20109;-86
2022/05/20 06:09:55;;;;;;;7.90;6.60;;;;;;;;;;4974774;28;20030;-86
2022/05/20 06:12:21;;;;;;;6.72;5.97;;;;;;;;;;4957346;28;20465;-86
2022/05/20 06:14:47;;;;;;;7.85;6.20;;;;;;;;;;4975858;28;20058;-85
2022/05/20 06:17:13;;;;;;;9.20;6.50;;;;;;;;;;4961164;28;20027;-85
2022/05/20 06:19:39;;;;;;;7.00;6.40;;;;;;;;;;4978468;28;20026;-84
2022/05/20 06:22:05;;;;;;;7.43;6.63;;;;;;;;;;4978683;28;20110;-85
2022/05/20 06:24:32;;;;;;;7.40;5.65;;;;;;;;;;4978349;28;20042;-85
2022/05/20 06:26:57;;;;;;;8.48;5.70;;;;;;;;;;4978354;28;20077;-84
2022/05/20 06:29:23;;;;;;;8.85;6.05;;;;;;;;;;4978545;28;20031;-85
2022/05/20 06:31:48;;;;;;;9.48;6.45;;;;;;;;;;4978404;28;20442;-84
2022/05/20 06:34:14;;;;;;;7.05;6.00;;;;;;;;;;4978338;28;20061;-86
2022/05/20 06:42:07;;;;;;;6.20;5.60;;;;;;;;;;4978480;28;20449;-85
2022/05/20 06:44:32;;;;;;;10.55;6.28;;;;;;;;;;4978313;28;20022;-85
2022/05/20 06:46:58;;;;;;;6.85;6.13;;;;;;;;;;4979218;28;20027;-86
2022/05/20 06:49:23;;;;;;;7.70;5.97;;;;;;;;;;4978275;28;20101;-85
2022/05/20 06:51:50;;;;;;;6.82;6.07;;;;;;;;;;4978749;28;20026;-86
2022/05/20 06:54:16;;;;;;;7.28;6.13;;;;;;;;;;4961028;28;20030;-86
2022/05/20 06:56:44;;;;;;;7.50;6.32;;;;;;;;;;4978474;28;20026;-86
2022/05/20 06:59:10;;;;;;;7.40;5.85;;;;;;;;;;4961691;28;20034;-86
2022/05/20 07:01:37;;;;;;;6.70;5.72;;;;;;;;;;4984964;28;20054;-85
2022/05/20 07:04:03;;;;;;;9.07;6.25;;;;;;;;;;4987061;28;20022;-84
2022/05/20 07:06:30;;;;;;;11.10;7.68;;;;;;;;;;4986892;28;20054;-85
2022/05/20 07:08:58;;;;;;;6.03;5.43;;;;;;;;;;4986323;28;20026;-86
2022/05/20 07:11:25;;;;;;;6.40;5.80;;;;;;;;;;4984757;28;20077;-85
2022/05/20 07:13:54;;;;;;;6.43;5.68;;;;;;;;;;4983798;28;20031;-85
2022/05/20 07:16:21;;;;;;;7.93;6.25;;;;;;;;;;4975577;28;20030;-86
2022/05/20 07:18:46;;;;;;;8.15;5.90;;;;;;;;;;4996072;28;20038;-84
2022/05/20 07:21:12;;;;;;;8.90;6.45;;;;;;;;;;4982862;28;20031;-90
2022/05/20 07:23:38;;;;;;;6.80;6.05;;;;;;;;;;4980803;28;20027;-91
2022/05/20 07:26:03;;;;;;;8.93;6.10;;;;;;;;;;4966086;28;20030;-86
2022/05/20 07:28:30;;;;;;;6.55;5.90;;;;;;;;;;4978074;28;20426;-86
2022/05/20 07:30:55;;;;;;;8.88;6.15;;;;;;;;;;4978777;28;20123;-89
2022/05/20 07:33:21;;;;;;;6.97;6.05;;;;;;;;;;4961687;28;20034;-89
2022/05/20 07:35:47;;;;;;;9.73;6.00;;;;;;;;;;4961045;28;20081;-89
2022/05/20 07:38:12;;;;;;;8.68;5.95;;;;;;;;;;4978897;28;20026;-88
2022/05/20 07:40:38;;;;;;;9.20;5.53;;;;;;;;;;4978016;28;20034;-89
2022/05/20 07:43:04;;;;;;;7.07;5.80;;;;;;;;;;4979181;28;20069;-90
2022/05/20 07:45:29;;;;;;;6.43;5.82;;;;;;;;;;4960938;28;20038;-88
2022/05/20 07:47:55;;;;;;;5.68;5.07;;;;;;;;;;4961068;28;20027;-89
2022/05/20 07:50:20;;;;;;;7.47;5.75;;;;;;;;;;4978233;28;20050;-87
2022/05/20 07:55:38;;;;;;;7.20;5.57;;;;;;;;;;4977147;28;20041;-89
2022/05/20 07:58:07;;;;;;;6.43;5.70;;;;;;;;;;4976872;28;20458;-85
2022/05/20 08:00:33;;;;;;;8.23;6.05;;;;;;;;;;4976964;28;20470;-90
2022/05/20 08:03:01;;;;;;;6.45;5.85;;;;;;;;;;4977135;28;20046;-88
2022/05/20 08:05:29;;;;;;;7.53;5.32;;;;;;;;;;4977014;28;20413;-85
2022/05/20 08:08:02;;;;;;;8.95;5.35;;;;;;;;;;4976822;28;20022;-90
2022/05/20 08:10:30;;;;;;;6.70;6.10;;;;;;;;;;4976872;28;20033;-87
2022/05/20 08:12:59;;;;;;;7.43;5.82;;;;;;;;;;4959689;28;20030;-87
2022/05/20 08:15:26;;;;;;;6.10;5.50;;;;;;;;;;4976745;28;20069;-88
2022/05/20 08:17:52;;;;;;;7.15;5.30;;;;;;;;;;4976492;28;20109;-85
2022/05/20 08:20:23;;;;;;;6.28;5.72;;;;;;;;;;4961323;28;20034;-92
2022/05/20 08:22:49;;;;;;;10.13;6.10;;;;;;;;;;4977347;28;20429;-89
2022/05/20 08:25:16;;;;;;;6.35;5.50;;;;;;;;;;4976467;28;20022;-86
2022/05/20 08:27:42;;;;;;;8.60;5.38;;;;;;;;;;4959515;28;20386;-90
2022/05/20 08:30:20;;;;;;;7.55;5.47;;;;;;;;;;4959055;28;20027;-87
2022/05/20 08:32:46;;;;;;;8.23;5.82;;;;;;;;;;4977337;28;20031;-89
2022/05/20 08:35:12;;;;;;;10.15;6.20;;;;;;;;;;4959051;28;20041;-89
2022/05/20 08:37:43;;;;;;;8.98;6.03;;;;;;;;;;4958485;28;20026;-87
2022/05/20 08:40:21;;;;;;;8.25;6.00;;;;;;;;;;4976004;28;20157;-88
2022/05/20 08:42:47;;;;;;;7.38;6.68;;;;;;;;;;4976102;28;20030;-87
2022/05/20 08:45:15;;;;;;;5.90;5.30;;;;;;;;;;4977129;28;20022;-85
2022/05/20 08:47:46;;;;;;;7.40;5.50;;;;;;;;;;4976001;28;20062;-86
2022/05/20 08:50:20;;;;;;;9.27;6.40;;;;;;;;;;4975993;28;20689;-87
2022/05/20 08:52:46;;;;;;;8.13;6.20;;;;;;;;;;4975958;28;20101;-88
2022/05/20 08:55:12;;;;;;;8.52;6.50;;;;;;;;;;4975708;28;20027;-88
2022/05/20 08:57:43;;;;;;;9.68;6.63;;;;;;;;;;4975564;28;20038;-87
2022/05/20 09:00:11;;;;;;;6.93;6.22;;;;;;;;;;4975796;28;20033;-87
2022/05/20 09:02:37;;;;;;;11.07;6.63;;;;;;;;;;4976236;28;20031;-93
2022/05/20 09:05:31;;;;;;;10.45;6.50;;;;;;;;;;4976108;28;20106;-88
2022/05/20 09:07:58;;;;;;;8.15;6.13;;;;;;;;;;4955680;28;20039;-94
2022/05/20 09:10:38;;;;;;;7.57;6.28;;;;;;;;;;4976043;28;20023;-93
2022/05/20 09:13:06;;;;;;;8.13;6.50;;;;;;;;;;4958995;28;20030;-92
2022/05/20 09:15:44;;;;;;;7.18;5.85;;;;;;;;;;4975838;28;20031;-92
2022/05/20 09:18:29;;;;;;;6.97;6.25;;;;;;;;;;4976134;28;20053;-90
2022/05/20 09:20:55;;;;;;;8.52;6.22;;;;;;;;;;4975336;28;20030;-86
2022/05/20 09:23:22;;;;;;;8.85;5.93;;;;;;;;;;4975316;28;20473;-88
2022/05/20 09:26:19;;;;;;;8.77;6.03;;;;;;;;;;4957996;28;20050;-87
2022/05/20 09:28:50;;;;;;;8.38;7.20;;;;;;;;;;4973829;28;20063;-88
2022/05/20 09:31:30;;;;;;;7.75;6.13;;;;;;;;;;4958123;28;20030;-88
2022/05/20 09:34:10;;;;;;;7.53;6.78;;;;;;;;;;4974958;28;20042;-88
2022/05/20 09:36:49;;;;;;;11.55;7.32;;;;;;;;;;4957561;28;20042;-87
2022/05/20 09:39:18;;;;;;;7.28;5.45;;;;;;;;;;4975471;28;20078;-91
2022/05/20 09:41:49;;;;;;;9.75;7.03;;;;;;;;;;4958098;28;20054;-90
2022/05/20 09:44:19;;;;;;;9.63;7.25;;;;;;;;;;4957825;28;20113;-89
2022/05/20 09:46:51;;;;;;;7.07;6.40;;;;;;;;;;4957586;28;20048;-89
2022/05/20 09:49:23;;;;;;;8.07;5.95;;;;;;;;;;4975446;28;20031;-87
2022/05/20 09:51:59;;;;;;;10.45;7.43;;;;;;;;;;4975007;28;20385;-86
2022/05/20 09:54:36;;;;;;;7.28;6.57;;;;;;;;;;4974907;28;20465;-86
2022/05/20 09:57:13;;;;;;;7.60;6.32;;;;;;;;;;4974824;28;20066;-85
2022/05/20 09:59:52;;;;;;;8.45;7.55;;;;;;;;;;4974755;28;20085;-85
2022/05/20 10:02:29;;;;;;;9.52;6.13;;;;;;;;;;4974753;28;20027;-86
2022/05/20 10:05:03;;;;;;;8.07;5.57;;;;;;;;;;4974764;28;20074;-87
2022/05/20 10:07:56;;;;;;;7.38;6.22;;;;;;;;;;4974490;28;20097;-86
2022/05/20 10:10:34;;;;;;;8.23;6.20;;;;;;;;;;4974837;28;20026;-87
2022/05/20 10:13:02;;;;;;;9.65;6.03;;;;;;;;;;4974779;28;20386;-89
2022/05/20 10:15:33;;;;;;;7.88;6.43;;;;;;;;;;4974872;28;20443;-88
2022/05/20 10:18:09;;;;;;;9.23;6.20;;;;;;;;;;4974838;28;20101;-88
2022/05/20 10:21:08;;;;;;;8.38;5.97;;;;;;;;;;4974654;28;20022;-86
2022/05/20 10:23:52;;;;;;;6.25;4.97;;;;;;;;;;4974780;28;20042;-86
2022/05/20 10:26:26;;;;;;;8.80;5.72;;;;;;;;;;4974999;28;20027;-88
2022/05/20 10:34:49;;;;;;;6.57;4.38;;;;;;;;;;4974534;28;20398;-87
2022/05/20 10:37:30;;;;;;;7.53;5.78;;;;;;;;;;4974549;28;20023;-87
2022/05/20 10:40:07;;;;;;;6.93;4.30;;;;;;;;;;4974581;28;20049;-89
2022/05/20 10:42:43;;;;;;;7.30;6.60;;;;;;;;;;4974678;28;20125;-85
2022/05/20 10:48:34;;;;;;;9.65;6.68;;;;;;;;;;4974868;28;20045;-92
2022/05/20 10:51:03;;;;;;;9.98;5.40;;;;;;;;;;4962442;28;20051;-89
2022/05/20 10:53:37;;;;;;;;;;;;;;;;;;4972422;28;20105;-87
2022/05/20 10:56:17;;;;;;;11.75;5.45;;;;;;;;;;4957011;28;19961;-88
2022/05/20 10:58:58;;;;;;;7.85;5.65;;;;;;;;;;4974172;28;20022;-88
2022/05/20 11:01:42;;;;;;;6.25;4.28;;;;;;;;;;4976571;28;20049;-83
2022/05/20 11:04:08;;;;;;;8.13;5.20;;;;;;;;;;4977647;28;20070;-82
2022/05/20 11:07:07;;;;;;;7.97;4.53;;;;;;;;;;4977580;28;20485;-86
2022/05/20 11:09:44;;;;;;;9.10;4.80;;;;;;;;;;4978779;28;20035;-84
2022/05/20 11:12:23;;;;;;;16.67;5.18;;;;;;;;;;4958401;28;20023;-88
2022/05/20 11:15:00;;;;;;;9.40;5.03;;;;;;;;;;4958490;29;20027;-85
2022/05/20 11:17:34;;;;;;;5.55;4.88;;;;;;;;;;4958136;29;20034;-86
2022/05/20 11:20:43;;;;;;;6.82;4.28;;;;;;;;;;4958349;29;20030;-88
2022/05/20 11:23:45;;;;;;;5.78;4.88;;;;;;;;;;4922686;28;20035;-88
2022/05/20 11:26:45;;;;;;;10.23;5.07;;;;;;;;;;4940729;29;20470;-85
2022/05/20 11:29:25;;;;;;;6.68;4.97;;;;;;;;;;4958952;29;20497;-88
2022/05/20 11:32:00;;;;;;;5.50;4.10;;;;;;;;;;4959374;29;20478;-85
2022/05/20 11:34:35;;;;;;;10.15;5.65;;;;;;;;;;4958773;28;20533;-87
2022/05/20 11:37:07;;;;;;;8.38;4.70;;;;;;;;;;4958262;28;20027;-86
2022/05/20 11:39:56;;;;;;;6.75;5.00;;;;;;;;;;4958183;28;20027;-84
2022/05/20 11:42:28;;;;;;;7.55;4.25;;;;;;;;;;4957764;28;20031;-87
2022/05/20 11:45:09;;;;;;;9.65;5.90;;;;;;;;;;4962360;29;20031;-88
2022/05/20 11:47:38;;;;;;;6.88;4.30;;;;;;;;;;4957768;28;20039;-84
2022/05/20 15:53:08;;;;;;;7.50;5.75;;;;;;;;;;4934284;28;20055;-90
2022/05/20 15:55:36;;;;;;;7.93;5.40;;;;;;;;;;4959388;28;20039;-81
2022/05/20 15:58:08;;;;;;;6.35;5.75;;;;;;;;;;4976748;28;20023;-82
2022/05/20 16:00:33;;;;;;;10.73;6.70;;;;;;;;;;4976724;28;20520;-86
2022/05/20 16:02:59;;;;;;;9.02;5.07;;;;;;;;;;4976903;28;20031;-85
2022/05/20 16:05:25;;;;;;;5.82;5.22;;;;;;;;;;4973017;28;20047;-89
2022/05/20 16:07:53;;;;;;;5.78;5.20;;;;;;;;;;4965963;28;20027;-89
2022/05/20 16:10:23;;;;;;;8.38;5.47;;;;;;;;;;4957075;28;20083;-90
2022/05/20 16:12:49;;;;;;;11.75;5.95;;;;;;;;;;4957438;28;20616;-83
2022/05/20 16:15:14;;;;;;;8.68;5.18;;;;;;;;;;4957369;28;20059;-89
2022/05/20 16:17:40;;;;;;;7.30;5.35;;;;;;;;;;4957584;28;20486;-92
2022/05/20 16:20:06;;;;;;;7.40;5.70;;;;;;;;;;4958268;28;20070;-91
2022/05/20 16:22:33;;;;;;;7.43;5.15;;;;;;;;;;4959455;29;20466;-92
2022/05/20 16:24:59;;;;;;;7.35;5.50;;;;;;;;;;4958667;28;20042;-90
2022/05/20 16:27:26;;;;;;;9.38;4.95;;;;;;;;;;4957926;28;20196;-90
2022/05/20 16:29:51;;;;;;;6.75;4.85;;;;;;;;;;4957144;28;20032;-89
2022/05/20 16:32:17;;;;;;;10.60;5.53;;;;;;;;;;4956955;28;20027;-90
2022/05/20 16:34:42;;;;;;;5.95;5.35;;;;;;;;;;4957359;28;20035;-90
2022/05/20 16:37:08;;;;;;;8.48;5.45;;;;;;;;;;4956788;28;20031;-91
2022/05/20 16:39:33;;;;;;;11.00;5.60;;;;;;;;;;4956827;28;20031;-90
2022/05/20 16:41:59;;;;;;;11.98;5.13;;;;;;;;;;4957013;29;20035;-90
2022/05/20 16:44:24;;;;;;;11.02;5.43;;;;;;;;;;4957215;28;20460;-89
2022/05/20 16:46:52;;;;;;;7.45;5.45;;;;;;;;;;4957040;28;20047;-91
2022/05/20 16:49:21;;;;;;;10.13;4.97;;;;;;;;;;4957081;29;20027;-88
2022/05/20 16:51:51;;;;;;;7.32;5.25;;;;;;;;;;4957277;29;20031;-96
2022/05/20 16:54:19;;;;;;;11.55;5.68;;;;;;;;;;4956796;28;20059;-89
2022/05/20 17:02:19;;;;;;;18.65;5.68;;;;;;;;;;4956924;29;20086;-83
2022/05/20 17:04:45;;;;;;;8.68;4.80;;;;;;;;;;4956133;28;20042;-84
2022/05/20 17:07:12;;;;;;;8.98;4.78;;;;;;;;;;4956497;28;20031;-84
2022/05/20 17:09:37;;;;;;;6.72;4.32;;;;;;;;;;4955872;28;20396;-84
2022/05/20 17:12:04;;;;;;;6.70;4.47;;;;;;;;;;4938900;29;20031;-84
2022/05/20 17:14:30;;;;;;;7.00;4.45;;;;;;;;;;4938513;29;20027;-85
2022/05/20 17:16:56;;;;;;;6.90;5.13;;;;;;;;;;4956080;28;20055;-84
2022/05/20 17:19:22;;;;;;;10.38;6.00;;;;;;;;;;4966234;28;20077;-84
2022/05/20 17:24:38;;;;;;;7.85;5.22;;;;;;;;;;4975352;28;20037;-85
2022/05/20 17:27:07;;;;;;;9.85;5.10;;;;;;;;;;4973196;28;20038;-85
2022/05/20 17:29:36;;;;;;;7.95;5.10;;;;;;;;;;4966280;28;20054;-86
2022/05/20 17:32:02;;;;;;;9.02;5.53;;;;;;;;;;4960618;28;20031;-85
2022/05/20 17:34:29;;;;;;;10.05;5.95;;;;;;;;;;4955866;29;20055;-85
2022/05/20 17:36:55;;;;;;;6.25;5.20;;;;;;;;;;4955974;29;20126;-87
2022/05/20 17:39:20;;;;;;;6.75;5.32;;;;;;;;;;4938537;29;20059;-86
2022/05/20 17:41:46;;;;;;;10.52;5.65;;;;;;;;;;4955723;28;20431;-86
2022/05/20 17:44:11;;;;;;;8.45;5.10;;;;;;;;;;4956341;29;20370;-86
2022/05/20 17:46:38;;;;;;;5.85;5.22;;;;;;;;;;4955664;28;20058;-85
2022/05/20 17:49:05;;;;;;;7.60;5.50;;;;;;;;;;4955675;28;20509;-85
2022/05/20 17:51:31;;;;;;;6.07;5.15;;;;;;;;;;4955862;29;20043;-83
2022/05/20 17:53:57;;;;;;;6.15;4.50;;;;;;;;;;4958218;28;20055;-84
2022/05/20 17:56:23;;;;;;;7.75;5.15;;;;;;;;;;4965029;28;20049;-83
2022/05/20 17:58:49;;;;;;;7.13;5.03;;;;;;;;;;4942808;28;20031;-84
2022/05/20 18:01:15;;;;;;;9.80;5.45;;;;;;;;;;4955384;28;20028;-85
2022/05/20 18:03:45;;;;;;;7.85;5.78;;;;;;;;;;4938237;29;20028;-85
2022/05/20 18:06:11;;;;;;;6.70;5.53;;;;;;;;;;4973811;28;20110;-86
2022/05/20 18:08:36;;;;;;;5.30;4.57;;;;;;;;;;4974675;28;20042;-86
2022/05/20 18:11:02;;;;;;;6.53;5.68;;;;;;;;;;4978071;28;20031;-87
2022/05/20 18:13:28;;;;;;;8.07;5.20;;;;;;;;;;4978879;28;20097;-86
2022/05/20 18:15:53;;;;;;;5.97;5.40;;;;;;;;;;4979260;28;20485;-86
2022/05/20 18:18:19;;;;;;;6.40;5.20;;;;;;;;;;4978527;28;20027;-86
2022/05/20 18:20:45;;;;;;;9.20;5.55;;;;;;;;;;4978486;28;20034;-85
2022/05/20 18:23:11;;;;;;;9.43;7.00;;;;;;;;;;4978467;28;20034;-86
2022/05/20 18:25:38;;;;;;;10.13;6.45;;;;;;;;;;4978444;28;20488;-86
2022/05/20 18:28:04;;;;;;;7.38;5.60;;;;;;;;;;4978392;28;20384;-86
2022/05/20 18:30:30;;;;;;;6.88;6.05;;;;;;;;;;4978869;28;20481;-86
2022/05/20 18:32:56;;;;;;;7.43;6.20;;;;;;;;;;4978671;28;20130;-86
2022/05/20 18:40:50;;;;;;;8.85;7.43;;;;;;;;;;4978773;28;20235;-86
2022/05/20 18:43:16;;;;;;;9.02;5.88;;;;;;;;;;4978516;28;20130;-86
2022/05/20 18:45:44;;;;;;;11.27;5.80;;;;;;;;;;4978665;28;20109;-85
2022/05/20 18:48:09;;;;;;;8.73;5.78;;;;;;;;;;4978486;28;20026;-84
2022/05/20 18:50:35;;;;;;;6.40;5.60;;;;;;;;;;4978689;28;20173;-86
2022/05/20 18:53:00;;;;;;;6.65;5.88;;;;;;;;;;4978833;28;20042;-87
2022/05/20 18:55:26;;;;;;;7.05;5.95;;;;;;;;;;4979688;28;20027;-88
2022/05/20 18:57:53;;;;;;;8.75;7.00;;;;;;;;;;4978719;28;20023;-85
2022/05/20 19:00:23;;;;;;;7.95;6.10;;;;;;;;;;4978211;28;20066;-85
2022/05/20 19:02:48;;;;;;;9.05;6.95;;;;;;;;;;4977903;28;20022;-85
2022/05/20 19:05:14;;;;;;;10.00;5.90;;;;;;;;;;4971912;28;20363;-85
2022/05/20 19:07:42;;;;;;;7.93;6.05;;;;;;;;;;4975695;28;20037;-85
2022/05/20 19:10:10;;;;;;;8.20;7.00;;;;;;;;;;4982372;28;20049;-85
2022/05/20 19:12:37;;;;;;;9.30;6.03;;;;;;;;;;4971082;28;20022;-84
2022/05/20 19:15:03;;;;;;;6.97;6.32;;;;;;;;;;4971792;28;20046;-85
2022/05/20 19:17:28;;;;;;;7.32;6.45;;;;;;;;;;4960060;28;20462;-85
2022/05/20 19:19:54;;;;;;;7.63;6.25;;;;;;;;;;4977352;28;20074;-86
2022/05/20 19:22:19;;;;;;;10.43;7.30;;;;;;;;;;4963757;28;20022;-84
2022/05/20 19:24:44;;;;;;;8.98;6.53;;;;;;;;;;4989042;28;20062;-85
2022/05/20 19:27:10;;;;;;;6.72;6.13;;;;;;;;;;4977459;28;20027;-84
2022/05/20 19:29:37;;;;;;;7.20;6.05;;;;;;;;;;4959737;28;20106;-85
2022/05/20 19:32:04;;;;;;;10.48;5.78;;;;;;;;;;4959748;28;20030;-85
2022/05/20 19:34:30;;;;;;;8.30;6.32;;;;;;;;;;4959789;28;20027;-85
2022/05/20 19:36:55;;;;;;;10.38;8.38;;;;;;;;;;4977061;28;20109;-85
2022/05/20 19:39:21;;;;;;;8.38;7.40;;;;;;;;;;4976751;28;20101;-86
2022/05/20 19:41:47;;;;;;;8.65;6.90;;;;;;;;;;4970708;28;20023;-85
2022/05/20 19:44:16;;;;;;;7.28;6.43;;;;;;;;;;4957668;28;20482;-85
2022/05/20 19:46:42;;;;;;;8.90;5.90;;;;;;;;;;4957569;29;20031;-85